Aeroporto :
LOGIN :

Iscrizione | Disclaimer

   EN    FR    IT 

 










Sommario :    VFR   VFR Marginale   IFR   IFR Intensivo   IFR Molto Intensivo
Visibilità : 
Base nubi : 
>= 8 km
>= 3000ft
5 / 8 km
1000 / 3000 ft
1500m / 5 km
500 / 1000 ft
800 / 1500m
200 / 500 ft
< 800m
< 200 ft
Simboli :   Temporali  Nebbia  Neve Forte  Precipitazioni Forti  Vento > 20 kt
SIGMETs :   Varie  Temporali  Ghiacco  Turbolenza  Onda orograficha  Ceneri Vulcaniche






- Altitudine del aeroporto : 1682 ft
- Codice IATA : VIT


LEVT - Vitoria Gasteiz

ULTIMO METAR :
  • 171730Z 23006KT 210V280 9999 FEW030 SCT060 07/04 Q1008

METARs OBSOLETI :
  • 171700Z VRB01KT 9999 FEW030 BKN060 07/06 Q1008
  • 171630Z VRB02KT 9999 FEW028 BKN050 07/06 Q1008
  • 171600Z 19003KT 9999 SCT025 BKN040 08/07 Q1008
  • 171530Z 28004KT 9999 -RA FEW018 BKN026 08/06 Q1008
  • 171500Z 22010KT 9999 FEW018 BKN026 08/05 Q1008
  • 171430Z 22011KT 9999 FEW020 BKN028 09/05 Q1008

TAF TAF LEVT
Valido dal 17 a 18 ore il 18 a 18 ore UTC


171700Z 1718/1818 VRB05KT 9999 FEW020 BKN030 TX08/1814Z TN03/1807Z
TEMPO 1718/1722 27010KT
PROB40
TEMPO 1718/1721 27015G25KT
TEMPO 1718/1724 3000 RA SHRA BKN010 SCT025TCU
TEMPO 1722/1724 35012KT
TEMPO 1800/1810 3000 -RA BCFG BKN012
TEMPO 1810/1816 35010KT



MetMap, La meteo Aeronautica in un colpo d'occhio ! - Copyright ORBIFLY Dicembre 2007 - Disclaimer

ORBIFLY MET'MAP TEAM :

Programmazione e sviluppo : Alexandra Zaïnal
Concezione e sviluppo : Baudouin d'Aumeries
Co-Programmazione e sviluppo : Marc-Olivier Méhu
Supporto tecnico e logistico : Manuel Goepfert
Aiuto per la traduzione : Arnaldo La Scala

Contatto : metmap@orbifly.com




FONTI E CREDITI :

   NOAA